sensor_id;sensor_type;location;lat;lon;timestamp;P1;durP1;ratioP1;P2;durP2;ratioP2
46563;SDS011;32291;52.010;4.446;2023-06-10T00:00:27;8.80;;;8.13;;
46563;SDS011;32291;52.010;4.446;2023-06-10T00:01:28;9.15;;;8.45;;
46563;SDS011;32291;52.010;4.446;2023-06-10T00:02:34;9.15;;;8.35;;
46563;SDS011;32291;52.010;4.446;2023-06-10T00:03:39;8.82;;;7.90;;
46563;SDS011;32291;52.010;4.446;2023-06-10T00:04:41;8.35;;;7.65;;
46563;SDS011;32291;52.010;4.446;2023-06-10T00:05:44;9.15;;;8.35;;
46563;SDS011;32291;52.010;4.446;2023-06-10T00:06:46;8.85;;;8.15;;
46563;SDS011;32291;52.010;4.446;2023-06-10T00:07:52;8.48;;;7.80;;
46563;SDS011;32291;52.010;4.446;2023-06-10T00:08:55;8.73;;;7.63;;
46563;SDS011;32291;52.010;4.446;2023-06-10T00:09:57;9.20;;;8.45;;
46563;SDS011;32291;52.010;4.446;2023-06-10T00:10:59;8.60;;;7.90;;
46563;SDS011;32291;52.010;4.446;2023-06-10T00:12:01;9.73;;;8.50;;
46563;SDS011;32291;52.010;4.446;2023-06-10T00:13:08;8.13;;;7.50;;
46563;SDS011;32291;52.010;4.446;2023-06-10T00:14:11;9.00;;;8.30;;
46563;SDS011;32291;52.010;4.446;2023-06-10T00:15:13;9.00;;;8.20;;
46563;SDS011;32291;52.010;4.446;2023-06-10T00:16:18;9.93;;;8.93;;
46563;SDS011;32291;52.010;4.446;2023-06-10T00:17:20;8.50;;;7.70;;
46563;SDS011;32291;52.010;4.446;2023-06-10T00:18:24;8.30;;;7.55;;
46563;SDS011;32291;52.010;4.446;2023-06-10T00:19:27;8.95;;;8.13;;
46563;SDS011;32291;52.010;4.446;2023-06-10T00:20:30;8.82;;;8.02;;
46563;SDS011;32291;52.010;4.446;2023-06-10T00:21:36;9.02;;;8.32;;
46563;SDS011;32291;52.010;4.446;2023-06-10T00:22:40;9.27;;;8.38;;
46563;SDS011;32291;52.010;4.446;2023-06-10T00:23:46;8.43;;;7.82;;
46563;SDS011;32291;52.010;4.446;2023-06-10T00:24:47;8.90;;;7.53;;
46563;SDS011;32291;52.010;4.446;2023-06-10T00:26:00;8.57;;;7.88;;
46563;SDS011;32291;52.010;4.446;2023-06-10T00:27:05;8.05;;;7.45;;
46563;SDS011;32291;52.010;4.446;2023-06-10T00:28:07;8.88;;;7.95;;
46563;SDS011;32291;52.010;4.446;2023-06-10T00:29:09;8.50;;;7.75;;
46563;SDS011;32291;52.010;4.446;2023-06-10T00:30:11;8.50;;;7.68;;
46563;SDS011;32291;52.010;4.446;2023-06-10T00:31:12;8.45;;;7.72;;
46563;SDS011;32291;52.010;4.446;2023-06-10T00:32:14;8.57;;;7.90;;
46563;SDS011;32291;52.010;4.446;2023-06-10T00:33:15;7.82;;;7.22;;
46563;SDS011;32291;52.010;4.446;2023-06-10T00:34:17;8.45;;;7.65;;
46563;SDS011;32291;52.010;4.446;2023-06-10T00:35:18;8.32;;;7.63;;
46563;SDS011;32291;52.010;4.446;2023-06-10T00:36:21;9.13;;;8.15;;
46563;SDS011;32291;52.010;4.446;2023-06-10T00:37:23;8.32;;;7.53;;
46563;SDS011;32291;52.010;4.446;2023-06-10T00:38:24;8.30;;;7.60;;
46563;SDS011;32291;52.010;4.446;2023-06-10T00:39:26;8.98;;;8.27;;
46563;SDS011;32291;52.010;4.446;2023-06-10T00:40:27;8.20;;;7.50;;
46563;SDS011;32291;52.010;4.446;2023-06-10T00:41:28;8.80;;;8.00;;
46563;SDS011;32291;52.010;4.446;2023-06-10T00:42:34;8.27;;;7.60;;
46563;SDS011;32291;52.010;4.446;2023-06-10T00:43:39;8.70;;;7.90;;
46563;SDS011;32291;52.010;4.446;2023-06-10T00:44:43;8.30;;;7.60;;
46563;SDS011;32291;52.010;4.446;2023-06-10T00:45:44;8.00;;;7.30;;
46563;SDS011;32291;52.010;4.446;2023-06-10T00:46:46;8.23;;;7.45;;
46563;SDS011;32291;52.010;4.446;2023-06-10T00:47:54;8.13;;;7.32;;
46563;SDS011;32291;52.010;4.446;2023-06-10T00:48:56;8.00;;;7.40;;
46563;SDS011;32291;52.010;4.446;2023-06-10T00:49:59;8.30;;;7.43;;
46563;SDS011;32291;52.010;4.446;2023-06-10T00:51:00;7.50;;;6.90;;
46563;SDS011;32291;52.010;4.446;2023-06-10T00:52:03;8.05;;;7.38;;
46563;SDS011;32291;52.010;4.446;2023-06-10T00:53:07;9.43;;;7.47;;
46563;SDS011;32291;52.010;4.446;2023-06-10T00:54:10;8.40;;;7.60;;
46563;SDS011;32291;52.010;4.446;2023-06-10T00:55:16;8.20;;;7.47;;
46563;SDS011;32291;52.010;4.446;2023-06-10T00:56:20;8.23;;;7.43;;
46563;SDS011;32291;52.010;4.446;2023-06-10T00:57:23;8.65;;;7.70;;
46563;SDS011;32291;52.010;4.446;2023-06-10T00:58:24;8.32;;;7.53;;
46563;SDS011;32291;52.010;4.446;2023-06-10T00:59:29;10.52;;;7.70;;
46563;SDS011;32291;52.010;4.446;2023-06-10T01:00:34;7.80;;;6.95;;
46563;SDS011;32291;52.010;4.446;2023-06-10T01:01:36;9.55;;;7.93;;
46563;SDS011;32291;52.010;4.446;2023-06-10T01:02:38;8.55;;;7.63;;
46563;SDS011;32291;52.010;4.446;2023-06-10T01:03:40;7.88;;;7.10;;
46563;SDS011;32291;52.010;4.446;2023-06-10T01:04:41;7.32;;;6.72;;
46563;SDS011;32291;52.010;4.446;2023-06-10T01:05:43;7.45;;;6.85;;
46563;SDS011;32291;52.010;4.446;2023-06-10T01:08:32;7.40;;;6.70;;
46563;SDS011;32291;52.010;4.446;2023-06-10T01:11:13;8.63;;;7.07;;
46563;SDS011;32291;52.010;4.446;2023-06-10T01:13:49;8.32;;;7.57;;
46563;SDS011;32291;52.010;4.446;2023-06-10T01:14:53;7.32;;;6.63;;
46563;SDS011;32291;52.010;4.446;2023-06-10T01:15:56;7.45;;;6.72;;
46563;SDS011;32291;52.010;4.446;2023-06-10T01:17:00;7.10;;;6.50;;
46563;SDS011;32291;52.010;4.446;2023-06-10T01:18:10;7.85;;;7.10;;
46563;SDS011;32291;52.010;4.446;2023-06-10T01:19:32;8.38;;;7.55;;
46563;SDS011;32291;52.010;4.446;2023-06-10T01:20:35;8.32;;;6.57;;
46563;SDS011;32291;52.010;4.446;2023-06-10T01:21:46;8.30;;;7.30;;
46563;SDS011;32291;52.010;4.446;2023-06-10T01:22:49;7.18;;;6.47;;
46563;SDS011;32291;52.010;4.446;2023-06-10T01:23:58;8.57;;;6.75;;
46563;SDS011;32291;52.010;4.446;2023-06-10T01:25:00;7.95;;;7.25;;
46563;SDS011;32291;52.010;4.446;2023-06-10T01:26:07;7.63;;;6.93;;
46563;SDS011;32291;52.010;4.446;2023-06-10T01:27:13;7.28;;;6.68;;
46563;SDS011;32291;52.010;4.446;2023-06-10T01:29:36;7.45;;;6.50;;
46563;SDS011;32291;52.010;4.446;2023-06-10T01:31:07;7.38;;;6.68;;
46563;SDS011;32291;52.010;4.446;2023-06-10T01:32:50;8.15;;;6.97;;
46563;SDS011;32291;52.010;4.446;2023-06-10T01:33:53;7.25;;;6.55;;
46563;SDS011;32291;52.010;4.446;2023-06-10T01:34:56;10.23;;;7.20;;
46563;SDS011;32291;52.010;4.446;2023-06-10T01:35:59;8.23;;;6.60;;
46563;SDS011;32291;52.010;4.446;2023-06-10T01:37:04;7.72;;;6.70;;
46563;SDS011;32291;52.010;4.446;2023-06-10T01:38:11;6.80;;;6.10;;
46563;SDS011;32291;52.010;4.446;2023-06-10T01:39:17;7.50;;;6.80;;
46563;SDS011;32291;52.010;4.446;2023-06-10T01:40:26;7.63;;;6.70;;
46563;SDS011;32291;52.010;4.446;2023-06-10T01:41:29;6.93;;;6.32;;
46563;SDS011;32291;52.010;4.446;2023-06-10T01:42:33;7.78;;;6.82;;
46563;SDS011;32291;52.010;4.446;2023-06-10T01:43:38;6.95;;;6.22;;
46563;SDS011;32291;52.010;4.446;2023-06-10T01:44:40;6.68;;;6.18;;
46563;SDS011;32291;52.010;4.446;2023-06-10T01:45:42;7.20;;;6.50;;
46563;SDS011;32291;52.010;4.446;2023-06-10T01:46:46;9.00;;;6.72;;
46563;SDS011;32291;52.010;4.446;2023-06-10T01:47:48;6.90;;;6.32;;
46563;SDS011;32291;52.010;4.446;2023-06-10T01:48:50;7.15;;;6.32;;
46563;SDS011;32291;52.010;4.446;2023-06-10T01:49:52;7.28;;;6.68;;
46563;SDS011;32291;52.010;4.446;2023-06-10T01:50:53;7.85;;;6.50;;
46563;SDS011;32291;52.010;4.446;2023-06-10T01:51:56;7.00;;;6.32;;
46563;SDS011;32291;52.010;4.446;2023-06-10T01:53:04;7.63;;;6.93;;
46563;SDS011;32291;52.010;4.446;2023-06-10T01:54:08;6.72;;;6.13;;
46563;SDS011;32291;52.010;4.446;2023-06-10T01:55:12;7.03;;;6.28;;
46563;SDS011;32291;52.010;4.446;2023-06-10T01:56:16;7.78;;;7.07;;
46563;SDS011;32291;52.010;4.446;2023-06-10T01:57:19;8.93;;;6.30;;
46563;SDS011;32291;52.010;4.446;2023-06-10T01:58:22;7.40;;;6.70;;
46563;SDS011;32291;52.010;4.446;2023-06-10T01:59:24;7.97;;;6.05;;
46563;SDS011;32291;52.010;4.446;2023-06-10T02:00:25;6.95;;;6.30;;
46563;SDS011;32291;52.010;4.446;2023-06-10T02:01:27;7.20;;;6.45;;
46563;SDS011;32291;52.010;4.446;2023-06-10T02:02:30;7.35;;;6.60;;
46563;SDS011;32291;52.010;4.446;2023-06-10T02:03:34;6.28;;;5.75;;
46563;SDS011;32291;52.010;4.446;2023-06-10T02:04:38;7.72;;;5.95;;
46563;SDS011;32291;52.010;4.446;2023-06-10T02:05:40;7.80;;;6.07;;
46563;SDS011;32291;52.010;4.446;2023-06-10T02:06:41;6.35;;;5.75;;
46563;SDS011;32291;52.010;4.446;2023-06-10T02:07:43;6.78;;;6.18;;
46563;SDS011;32291;52.010;4.446;2023-06-10T02:08:44;9.43;;;6.38;;
46563;SDS011;32291;52.010;4.446;2023-06-10T02:09:46;7.25;;;6.47;;
46563;SDS011;32291;52.010;4.446;2023-06-10T02:10:47;6.85;;;6.00;;
46563;SDS011;32291;52.010;4.446;2023-06-10T02:11:51;6.45;;;5.82;;
46563;SDS011;32291;52.010;4.446;2023-06-10T02:12:53;6.30;;;5.68;;
46563;SDS011;32291;52.010;4.446;2023-06-10T02:13:54;9.07;;;6.93;;
46563;SDS011;32291;52.010;4.446;2023-06-10T02:14:56;7.90;;;6.38;;
46563;SDS011;32291;52.010;4.446;2023-06-10T02:15:57;7.60;;;6.05;;
46563;SDS011;32291;52.010;4.446;2023-06-10T02:16:59;7.05;;;6.35;;
46563;SDS011;32291;52.010;4.446;2023-06-10T02:18:04;6.65;;;6.10;;
46563;SDS011;32291;52.010;4.446;2023-06-10T02:19:11;7.57;;;6.07;;
46563;SDS011;32291;52.010;4.446;2023-06-10T02:20:13;7.57;;;6.57;;
46563;SDS011;32291;52.010;4.446;2023-06-10T02:21:15;6.45;;;5.85;;
46563;SDS011;32291;52.010;4.446;2023-06-10T02:22:17;6.47;;;5.65;;
46563;SDS011;32291;52.010;4.446;2023-06-10T02:23:22;6.97;;;6.05;;
46563;SDS011;32291;52.010;4.446;2023-06-10T02:24:24;7.35;;;6.00;;
46563;SDS011;32291;52.010;4.446;2023-06-10T02:25:26;6.72;;;6.10;;
46563;SDS011;32291;52.010;4.446;2023-06-10T02:26:27;6.47;;;5.80;;
46563;SDS011;32291;52.010;4.446;2023-06-10T02:27:29;6.78;;;6.07;;
46563;SDS011;32291;52.010;4.446;2023-06-10T02:28:33;6.65;;;5.95;;
46563;SDS011;32291;52.010;4.446;2023-06-10T02:29:35;5.95;;;5.30;;
46563;SDS011;32291;52.010;4.446;2023-06-10T02:30:38;7.72;;;5.97;;
46563;SDS011;32291;52.010;4.446;2023-06-10T02:31:42;7.07;;;5.88;;
46563;SDS011;32291;52.010;4.446;2023-06-10T02:32:44;7.13;;;5.53;;
46563;SDS011;32291;52.010;4.446;2023-06-10T02:33:48;6.63;;;5.65;;
46563;SDS011;32291;52.010;4.446;2023-06-10T02:34:52;6.60;;;6.10;;
46563;SDS011;32291;52.010;4.446;2023-06-10T02:35:54;6.55;;;5.88;;
46563;SDS011;32291;52.010;4.446;2023-06-10T02:36:56;7.53;;;6.00;;
46563;SDS011;32291;52.010;4.446;2023-06-10T02:37:58;6.82;;;6.15;;
46563;SDS011;32291;52.010;4.446;2023-06-10T02:38:59;10.00;;;6.35;;
46563;SDS011;32291;52.010;4.446;2023-06-10T02:40:04;10.07;;;6.05;;
46563;SDS011;32291;52.010;4.446;2023-06-10T02:41:06;6.57;;;5.65;;
46563;SDS011;32291;52.010;4.446;2023-06-10T02:42:08;7.20;;;5.57;;
46563;SDS011;32291;52.010;4.446;2023-06-10T02:43:11;7.13;;;5.88;;
46563;SDS011;32291;52.010;4.446;2023-06-10T02:44:12;7.15;;;6.07;;
46563;SDS011;32291;52.010;4.446;2023-06-10T02:45:14;6.72;;;6.05;;
46563;SDS011;32291;52.010;4.446;2023-06-10T02:46:18;8.20;;;5.75;;
46563;SDS011;32291;52.010;4.446;2023-06-10T02:47:19;6.88;;;6.28;;
46563;SDS011;32291;52.010;4.446;2023-06-10T02:48:24;8.35;;;5.93;;
46563;SDS011;32291;52.010;4.446;2023-06-10T02:49:25;6.43;;;5.85;;
46563;SDS011;32291;52.010;4.446;2023-06-10T02:50:30;6.93;;;5.35;;
46563;SDS011;32291;52.010;4.446;2023-06-10T02:51:38;6.65;;;5.75;;
46563;SDS011;32291;52.010;4.446;2023-06-10T02:52:42;9.43;;;6.45;;
46563;SDS011;32291;52.010;4.446;2023-06-10T02:53:44;9.95;;;6.15;;
46563;SDS011;32291;52.010;4.446;2023-06-10T02:54:47;6.53;;;5.93;;
46563;SDS011;32291;52.010;4.446;2023-06-10T02:55:52;6.68;;;5.70;;
46563;SDS011;32291;52.010;4.446;2023-06-10T02:56:53;6.82;;;6.13;;
46563;SDS011;32291;52.010;4.446;2023-06-10T02:57:56;10.80;;;6.50;;
46563;SDS011;32291;52.010;4.446;2023-06-10T02:58:57;6.55;;;5.97;;
46563;SDS011;32291;52.010;4.446;2023-06-10T02:59:59;7.63;;;6.07;;
46563;SDS011;32291;52.010;4.446;2023-06-10T03:01:03;7.35;;;6.45;;
46563;SDS011;32291;52.010;4.446;2023-06-10T03:02:05;7.18;;;5.75;;
46563;SDS011;32291;52.010;4.446;2023-06-10T03:03:06;7.95;;;5.78;;
46563;SDS011;32291;52.010;4.446;2023-06-10T03:04:08;6.45;;;5.78;;
46563;SDS011;32291;52.010;4.446;2023-06-10T03:05:10;6.40;;;5.80;;
46563;SDS011;32291;52.010;4.446;2023-06-10T03:06:13;6.60;;;5.90;;
46563;SDS011;32291;52.010;4.446;2023-06-10T03:07:15;6.25;;;5.65;;
46563;SDS011;32291;52.010;4.446;2023-06-10T03:08:16;6.32;;;5.72;;
46563;SDS011;32291;52.010;4.446;2023-06-10T03:09:20;6.78;;;5.63;;
46563;SDS011;32291;52.010;4.446;2023-06-10T03:10:22;9.35;;;6.15;;
46563;SDS011;32291;52.010;4.446;2023-06-10T03:11:23;7.22;;;6.53;;
46563;SDS011;32291;52.010;4.446;2023-06-10T03:12:26;7.90;;;5.93;;
46563;SDS011;32291;52.010;4.446;2023-06-10T03:13:28;8.45;;;6.07;;
46563;SDS011;32291;52.010;4.446;2023-06-10T03:14:29;6.60;;;5.32;;
46563;SDS011;32291;52.010;4.446;2023-06-10T03:15:30;7.25;;;5.88;;
46563;SDS011;32291;52.010;4.446;2023-06-10T03:16:33;6.78;;;5.50;;
46563;SDS011;32291;52.010;4.446;2023-06-10T03:17:37;6.88;;;6.18;;
46563;SDS011;32291;52.010;4.446;2023-06-10T03:18:39;6.85;;;5.95;;
46563;SDS011;32291;52.010;4.446;2023-06-10T03:19:40;9.20;;;6.25;;
46563;SDS011;32291;52.010;4.446;2023-06-10T03:20:44;6.93;;;5.85;;
46563;SDS011;32291;52.010;4.446;2023-06-10T03:21:48;6.60;;;6.00;;
46563;SDS011;32291;52.010;4.446;2023-06-10T03:22:58;8.45;;;6.35;;
46563;SDS011;32291;52.010;4.446;2023-06-10T03:24:03;6.60;;;5.90;;
46563;SDS011;32291;52.010;4.446;2023-06-10T03:25:06;16.33;;;6.57;;
46563;SDS011;32291;52.010;4.446;2023-06-10T03:26:09;6.50;;;5.90;;
46563;SDS011;32291;52.010;4.446;2023-06-10T03:27:13;9.20;;;6.22;;
46563;SDS011;32291;52.010;4.446;2023-06-10T03:28:15;9.15;;;5.85;;
46563;SDS011;32291;52.010;4.446;2023-06-10T03:29:17;6.53;;;5.75;;
46563;SDS011;32291;52.010;4.446;2023-06-10T03:30:24;6.13;;;5.55;;
46563;SDS011;32291;52.010;4.446;2023-06-10T03:31:28;6.75;;;6.05;;
46563;SDS011;32291;52.010;4.446;2023-06-10T03:32:30;5.78;;;5.15;;
46563;SDS011;32291;52.010;4.446;2023-06-10T03:33:31;7.40;;;6.07;;
46563;SDS011;32291;52.010;4.446;2023-06-10T03:34:33;7.78;;;6.18;;
46563;SDS011;32291;52.010;4.446;2023-06-10T03:35:37;8.00;;;7.20;;
46563;SDS011;32291;52.010;4.446;2023-06-10T03:36:39;6.70;;;5.90;;
46563;SDS011;32291;52.010;4.446;2023-06-10T03:37:43;5.90;;;5.30;;
46563;SDS011;32291;52.010;4.446;2023-06-10T03:38:44;6.03;;;5.47;;
46563;SDS011;32291;52.010;4.446;2023-06-10T03:39:46;6.43;;;5.80;;
46563;SDS011;32291;52.010;4.446;2023-06-10T03:40:47;6.82;;;6.22;;
46563;SDS011;32291;52.010;4.446;2023-06-10T03:41:56;6.60;;;5.80;;
46563;SDS011;32291;52.010;4.446;2023-06-10T03:42:58;7.30;;;6.55;;
46563;SDS011;32291;52.010;4.446;2023-06-10T03:44:00;8.38;;;6.00;;
46563;SDS011;32291;52.010;4.446;2023-06-10T03:45:04;7.38;;;6.60;;
46563;SDS011;32291;52.010;4.446;2023-06-10T03:46:12;6.18;;;5.30;;
46563;SDS011;32291;52.010;4.446;2023-06-10T03:47:13;5.90;;;5.35;;
46563;SDS011;32291;52.010;4.446;2023-06-10T03:48:14;8.65;;;6.07;;
46563;SDS011;32291;52.010;4.446;2023-06-10T03:49:17;8.90;;;6.30;;
46563;SDS011;32291;52.010;4.446;2023-06-10T03:50:24;6.50;;;5.82;;
46563;SDS011;32291;52.010;4.446;2023-06-10T03:51:26;7.68;;;6.18;;
46563;SDS011;32291;52.010;4.446;2023-06-10T03:52:28;6.15;;;5.55;;
46563;SDS011;32291;52.010;4.446;2023-06-10T03:53:35;7.65;;;5.78;;
46563;SDS011;32291;52.010;4.446;2023-06-10T03:54:39;6.43;;;5.47;;
46563;SDS011;32291;52.010;4.446;2023-06-10T03:55:40;6.88;;;5.35;;
46563;SDS011;32291;52.010;4.446;2023-06-10T03:56:42;7.35;;;5.75;;
46563;SDS011;32291;52.010;4.446;2023-06-10T03:57:44;7.03;;;5.30;;
46563;SDS011;32291;52.010;4.446;2023-06-10T03:58:45;8.00;;;5.63;;
46563;SDS011;32291;52.010;4.446;2023-06-10T03:59:46;6.18;;;5.47;;
46563;SDS011;32291;52.010;4.446;2023-06-10T04:00:51;6.95;;;5.70;;
46563;SDS011;32291;52.010;4.446;2023-06-10T04:01:53;8.93;;;6.03;;
46563;SDS011;32291;52.010;4.446;2023-06-10T04:02:55;6.07;;;5.10;;
46563;SDS011;32291;52.010;4.446;2023-06-10T04:03:58;6.28;;;5.68;;
46563;SDS011;32291;52.010;4.446;2023-06-10T04:05:02;7.82;;;5.68;;
46563;SDS011;32291;52.010;4.446;2023-06-10T04:06:04;11.43;;;5.70;;
46563;SDS011;32291;52.010;4.446;2023-06-10T04:07:08;6.78;;;5.93;;
46563;SDS011;32291;52.010;4.446;2023-06-10T04:08:10;6.60;;;5.93;;
46563;SDS011;32291;52.010;4.446;2023-06-10T04:09:11;6.47;;;5.88;;
46563;SDS011;32291;52.010;4.446;2023-06-10T04:10:13;8.60;;;6.05;;
46563;SDS011;32291;52.010;4.446;2023-06-10T04:11:15;6.55;;;5.95;;
46563;SDS011;32291;52.010;4.446;2023-06-10T04:12:17;6.22;;;5.63;;
46563;SDS011;32291;52.010;4.446;2023-06-10T04:13:22;8.52;;;5.70;;
46563;SDS011;32291;52.010;4.446;2023-06-10T04:14:24;6.53;;;5.70;;
46563;SDS011;32291;52.010;4.446;2023-06-10T04:15:25;8.18;;;5.80;;
46563;SDS011;32291;52.010;4.446;2023-06-10T04:16:27;6.13;;;5.43;;
46563;SDS011;32291;52.010;4.446;2023-06-10T04:17:28;6.63;;;6.03;;
46563;SDS011;32291;52.010;4.446;2023-06-10T04:18:30;7.22;;;5.78;;
46563;SDS011;32291;52.010;4.446;2023-06-10T04:19:34;8.23;;;6.00;;
46563;SDS011;32291;52.010;4.446;2023-06-10T04:20:36;8.07;;;5.95;;
46563;SDS011;32291;52.010;4.446;2023-06-10T04:21:38;6.60;;;5.55;;
46563;SDS011;32291;52.010;4.446;2023-06-10T04:22:42;7.80;;;6.57;;
46563;SDS011;32291;52.010;4.446;2023-06-10T04:23:44;6.13;;;5.25;;
46563;SDS011;32291;52.010;4.446;2023-06-10T04:24:46;5.80;;;5.30;;
46563;SDS011;32291;52.010;4.446;2023-06-10T04:25:48;7.68;;;6.18;;
46563;SDS011;32291;52.010;4.446;2023-06-10T04:26:54;9.27;;;5.57;;
46563;SDS011;32291;52.010;4.446;2023-06-10T04:27:55;7.72;;;5.97;;
46563;SDS011;32291;52.010;4.446;2023-06-10T04:28:57;6.30;;;5.63;;
46563;SDS011;32291;52.010;4.446;2023-06-10T04:29:58;6.22;;;5.72;;
46563;SDS011;32291;52.010;4.446;2023-06-10T04:30:59;7.13;;;6.10;;
46563;SDS011;32291;52.010;4.446;2023-06-10T04:32:04;10.60;;;5.95;;
46563;SDS011;32291;52.010;4.446;2023-06-10T04:33:08;5.97;;;5.38;;
46563;SDS011;32291;52.010;4.446;2023-06-10T04:34:10;6.63;;;5.55;;
46563;SDS011;32291;52.010;4.446;2023-06-10T04:35:11;6.57;;;5.97;;
46563;SDS011;32291;52.010;4.446;2023-06-10T04:36:14;6.13;;;5.53;;
46563;SDS011;32291;52.010;4.446;2023-06-10T04:37:17;6.80;;;6.10;;
46563;SDS011;32291;52.010;4.446;2023-06-10T04:38:22;8.90;;;5.95;;
46563;SDS011;32291;52.010;4.446;2023-06-10T04:39:23;6.68;;;5.88;;
46563;SDS011;32291;52.010;4.446;2023-06-10T04:40:25;6.15;;;5.55;;
46563;SDS011;32291;52.010;4.446;2023-06-10T04:41:26;6.00;;;5.40;;
46563;SDS011;32291;52.010;4.446;2023-06-10T04:42:27;7.13;;;5.80;;
46563;SDS011;32291;52.010;4.446;2023-06-10T04:43:29;8.82;;;6.13;;
46563;SDS011;32291;52.010;4.446;2023-06-10T04:44:34;6.35;;;5.50;;
46563;SDS011;32291;52.010;4.446;2023-06-10T04:45:35;7.32;;;5.15;;
46563;SDS011;32291;52.010;4.446;2023-06-10T04:46:37;8.20;;;6.00;;
46563;SDS011;32291;52.010;4.446;2023-06-10T04:47:39;10.73;;;7.38;;
46563;SDS011;32291;52.010;4.446;2023-06-10T04:48:40;6.18;;;5.50;;
46563;SDS011;32291;52.010;4.446;2023-06-10T04:49:43;6.60;;;5.65;;
46563;SDS011;32291;52.010;4.446;2023-06-10T04:50:47;7.75;;;5.45;;
46563;SDS011;32291;52.010;4.446;2023-06-10T04:51:51;6.30;;;5.70;;
46563;SDS011;32291;52.010;4.446;2023-06-10T04:52:53;6.32;;;5.25;;
46563;SDS011;32291;52.010;4.446;2023-06-10T04:53:58;7.28;;;6.20;;
46563;SDS011;32291;52.010;4.446;2023-06-10T04:55:03;7.43;;;5.93;;
46563;SDS011;32291;52.010;4.446;2023-06-10T04:56:09;6.78;;;5.50;;
46563;SDS011;32291;52.010;4.446;2023-06-10T04:57:11;6.72;;;5.75;;
46563;SDS011;32291;52.010;4.446;2023-06-10T04:58:14;6.70;;;5.32;;
46563;SDS011;32291;52.010;4.446;2023-06-10T04:59:16;6.75;;;5.18;;
46563;SDS011;32291;52.010;4.446;2023-06-10T05:00:17;6.35;;;5.65;;
46563;SDS011;32291;52.010;4.446;2023-06-10T05:01:19;6.38;;;5.72;;
46563;SDS011;32291;52.010;4.446;2023-06-10T05:02:22;6.43;;;5.47;;
46563;SDS011;32291;52.010;4.446;2023-06-10T05:03:23;6.88;;;5.93;;
46563;SDS011;32291;52.010;4.446;2023-06-10T05:04:25;8.48;;;5.85;;
46563;SDS011;32291;52.010;4.446;2023-06-10T05:05:26;6.22;;;5.55;;
46563;SDS011;32291;52.010;4.446;2023-06-10T05:06:29;6.43;;;5.82;;
46563;SDS011;32291;52.010;4.446;2023-06-10T05:07:31;6.82;;;5.68;;
46563;SDS011;32291;52.010;4.446;2023-06-10T05:08:33;6.90;;;5.57;;
46563;SDS011;32291;52.010;4.446;2023-06-10T05:09:39;7.40;;;5.78;;
46563;SDS011;32291;52.010;4.446;2023-06-10T05:10:41;8.57;;;6.05;;
46563;SDS011;32291;52.010;4.446;2023-06-10T05:11:42;6.63;;;5.50;;
46563;SDS011;32291;52.010;4.446;2023-06-10T05:12:45;7.18;;;6.45;;
46563;SDS011;32291;52.010;4.446;2023-06-10T05:13:47;6.63;;;5.50;;
46563;SDS011;32291;52.010;4.446;2023-06-10T05:14:49;6.00;;;5.40;;
46563;SDS011;32291;52.010;4.446;2023-06-10T05:15:54;6.72;;;5.47;;
46563;SDS011;32291;52.010;4.446;2023-06-10T05:16:55;7.60;;;5.88;;
46563;SDS011;32291;52.010;4.446;2023-06-10T05:17:57;7.75;;;6.28;;
46563;SDS011;32291;52.010;4.446;2023-06-10T05:18:59;7.95;;;6.13;;
46563;SDS011;32291;52.010;4.446;2023-06-10T05:20:01;7.68;;;6.03;;
46563;SDS011;32291;52.010;4.446;2023-06-10T05:21:03;9.30;;;5.78;;
46563;SDS011;32291;52.010;4.446;2023-06-10T05:22:06;6.40;;;5.70;;
46563;SDS011;32291;52.010;4.446;2023-06-10T05:23:08;6.70;;;6.10;;
46563;SDS011;32291;52.010;4.446;2023-06-10T05:24:09;7.28;;;6.50;;
46563;SDS011;32291;52.010;4.446;2023-06-10T05:25:11;6.43;;;5.88;;
46563;SDS011;32291;52.010;4.446;2023-06-10T05:26:12;7.90;;;5.70;;
46563;SDS011;32291;52.010;4.446;2023-06-10T05:27:14;7.47;;;5.90;;
46563;SDS011;32291;52.010;4.446;2023-06-10T05:28:16;6.63;;;6.03;;
46563;SDS011;32291;52.010;4.446;2023-06-10T05:29:17;7.13;;;6.03;;
46563;SDS011;32291;52.010;4.446;2023-06-10T05:30:22;8.38;;;6.20;;
46563;SDS011;32291;52.010;4.446;2023-06-10T05:31:25;10.35;;;6.35;;
46563;SDS011;32291;52.010;4.446;2023-06-10T05:32:26;7.30;;;5.72;;
46563;SDS011;32291;52.010;4.446;2023-06-10T05:33:28;7.97;;;5.78;;
46563;SDS011;32291;52.010;4.446;2023-06-10T05:34:30;6.45;;;5.80;;
46563;SDS011;32291;52.010;4.446;2023-06-10T05:35:37;8.05;;;6.35;;
46563;SDS011;32291;52.010;4.446;2023-06-10T05:36:39;7.43;;;6.00;;
46563;SDS011;32291;52.010;4.446;2023-06-10T05:37:40;7.15;;;6.13;;
46563;SDS011;32291;52.010;4.446;2023-06-10T05:38:44;7.25;;;6.03;;
46563;SDS011;32291;52.010;4.446;2023-06-10T05:39:47;6.78;;;5.72;;
46563;SDS011;32291;52.010;4.446;2023-06-10T05:40:48;7.40;;;6.13;;
46563;SDS011;32291;52.010;4.446;2023-06-10T05:41:52;7.07;;;5.55;;
46563;SDS011;32291;52.010;4.446;2023-06-10T05:42:54;7.63;;;5.72;;
46563;SDS011;32291;52.010;4.446;2023-06-10T05:43:55;7.47;;;6.18;;
46563;SDS011;32291;52.010;4.446;2023-06-10T05:45:00;6.60;;;5.80;;
46563;SDS011;32291;52.010;4.446;2023-06-10T05:46:07;7.32;;;6.47;;
46563;SDS011;32291;52.010;4.446;2023-06-10T05:47:08;9.75;;;6.13;;
46563;SDS011;32291;52.010;4.446;2023-06-10T05:48:10;8.23;;;6.53;;
46563;SDS011;32291;52.010;4.446;2023-06-10T05:49:11;8.18;;;6.50;;
46563;SDS011;32291;52.010;4.446;2023-06-10T05:50:13;9.57;;;6.82;;
46563;SDS011;32291;52.010;4.446;2023-06-10T05:51:16;7.15;;;6.28;;
46563;SDS011;32291;52.010;4.446;2023-06-10T05:52:17;9.75;;;6.05;;
46563;SDS011;32291;52.010;4.446;2023-06-10T05:53:26;8.23;;;6.32;;
46563;SDS011;32291;52.010;4.446;2023-06-10T05:54:28;8.05;;;6.45;;
46563;SDS011;32291;52.010;4.446;2023-06-10T05:55:29;7.38;;;6.57;;
46563;SDS011;32291;52.010;4.446;2023-06-10T05:56:33;7.43;;;5.55;;
46563;SDS011;32291;52.010;4.446;2023-06-10T05:57:35;8.68;;;6.63;;
46563;SDS011;32291;52.010;4.446;2023-06-10T05:58:42;11.15;;;6.35;;
46563;SDS011;32291;52.010;4.446;2023-06-10T05:59:44;6.55;;;5.95;;
46563;SDS011;32291;52.010;4.446;2023-06-10T06:00:45;8.07;;;6.90;;
46563;SDS011;32291;52.010;4.446;2023-06-10T06:01:47;7.03;;;6.32;;
46563;SDS011;32291;52.010;4.446;2023-06-10T06:02:56;8.05;;;6.85;;
46563;SDS011;32291;52.010;4.446;2023-06-10T06:03:59;8.02;;;6.80;;
46563;SDS011;32291;52.010;4.446;2023-06-10T06:05:00;8.75;;;6.82;;
46563;SDS011;32291;52.010;4.446;2023-06-10T06:06:05;8.55;;;7.05;;
46563;SDS011;32291;52.010;4.446;2023-06-10T06:07:07;7.53;;;6.82;;
46563;SDS011;32291;52.010;4.446;2023-06-10T06:08:09;8.73;;;6.88;;
46563;SDS011;32291;52.010;4.446;2023-06-10T06:09:11;7.95;;;6.38;;
46563;SDS011;32291;52.010;4.446;2023-06-10T06:10:13;6.72;;;6.10;;
46563;SDS011;32291;52.010;4.446;2023-06-10T06:11:14;7.88;;;6.22;;
46563;SDS011;32291;52.010;4.446;2023-06-10T06:12:18;9.07;;;6.32;;
46563;SDS011;32291;52.010;4.446;2023-06-10T06:13:22;7.13;;;6.22;;
46563;SDS011;32291;52.010;4.446;2023-06-10T06:14:23;6.65;;;6.00;;
46563;SDS011;32291;52.010;4.446;2023-06-10T06:15:24;9.95;;;6.93;;
46563;SDS011;32291;52.010;4.446;2023-06-10T06:16:26;6.90;;;6.20;;
46563;SDS011;32291;52.010;4.446;2023-06-10T06:17:28;9.90;;;6.75;;
46563;SDS011;32291;52.010;4.446;2023-06-10T06:18:29;7.78;;;6.80;;
46563;SDS011;32291;52.010;4.446;2023-06-10T06:19:30;7.75;;;6.95;;
46563;SDS011;32291;52.010;4.446;2023-06-10T06:20:32;10.40;;;7.10;;
46563;SDS011;32291;52.010;4.446;2023-06-10T06:21:34;7.00;;;6.40;;
46563;SDS011;32291;52.010;4.446;2023-06-10T06:22:35;7.25;;;6.38;;
46563;SDS011;32291;52.010;4.446;2023-06-10T06:23:37;7.45;;;6.40;;
46563;SDS011;32291;52.010;4.446;2023-06-10T06:24:39;6.78;;;5.95;;
46563;SDS011;32291;52.010;4.446;2023-06-10T06:25:40;9.57;;;6.60;;
46563;SDS011;32291;52.010;4.446;2023-06-10T06:26:43;7.22;;;6.43;;